createdAt,value
2018-02-17T00:00:18.660Z,16.90
2018-02-17T00:01:21.154Z,15.90
2018-02-17T00:02:23.661Z,17.48
2018-02-17T00:03:26.166Z,16.85
2018-02-17T00:04:28.735Z,17.17
2018-02-17T00:05:31.528Z,17.50
2018-02-17T00:06:34.008Z,16.75
2018-02-17T00:07:36.558Z,18.05
2018-02-17T00:08:39.100Z,16.98
2018-02-17T00:09:41.597Z,16.27
2018-02-17T00:10:44.072Z,15.95
2018-02-17T00:11:47.296Z,16.77
2018-02-17T00:12:50.778Z,16.23
2018-02-17T00:13:54.043Z,16.75
2018-02-17T00:14:56.567Z,16.35
2018-02-17T00:15:59.920Z,16.02
2018-02-17T00:17:02.379Z,15.93
2018-02-17T00:18:05.184Z,14.93
2018-02-17T00:19:07.724Z,16.30
2018-02-17T00:20:11.077Z,15.57
2018-02-17T00:21:13.647Z,16.27
2018-02-17T00:22:16.880Z,15.95
2018-02-17T00:23:20.106Z,16.67
2018-02-17T00:24:23.032Z,16.87
2018-02-17T00:25:25.531Z,17.83
2018-02-17T00:26:28.028Z,17.08
2018-02-17T00:27:30.549Z,15.88
2018-02-17T00:28:33.810Z,16.75
2018-02-17T00:29:36.381Z,16.02
2018-02-17T00:30:39.696Z,16.45
2018-02-17T00:31:42.201Z,16.52
2018-02-17T00:32:44.711Z,16.62
2018-02-17T00:33:47.996Z,16.00
2018-02-17T00:34:50.496Z,17.37
2018-02-17T00:35:52.982Z,15.88
2018-02-17T00:36:56.281Z,15.90
2018-02-17T00:37:58.741Z,16.83
2018-02-17T00:39:01.231Z,16.25
2018-02-17T00:40:03.710Z,15.43
2018-02-17T00:41:06.268Z,17.37
2018-02-17T00:42:08.770Z,17.00
2018-02-17T00:43:12.170Z,16.90
2018-02-17T00:44:14.678Z,16.27
2018-02-17T00:45:17.208Z,16.40
2018-02-17T00:46:19.785Z,15.75
2018-02-17T00:47:23.796Z,17.10
2018-02-17T00:48:26.296Z,16.55
2018-02-17T00:49:28.784Z,16.83
2018-02-17T00:50:31.290Z,16.80
2018-02-17T00:51:33.817Z,16.52
2018-02-17T00:52:36.304Z,17.30
2018-02-17T00:53:38.804Z,16.85
2018-02-17T00:54:42.053Z,17.52
2018-02-17T00:55:44.599Z,16.75
2018-02-17T00:56:47.840Z,17.17
2018-02-17T00:57:51.075Z,18.00
2018-02-17T00:58:54.327Z,18.98
2018-02-17T00:59:57.554Z,18.45
2018-02-17T01:01:00.862Z,18.65
2018-02-17T01:02:03.350Z,18.02
2018-02-17T01:03:06.735Z,18.62
2018-02-17T01:04:09.205Z,18.70
2018-02-17T01:05:12.459Z,18.35
2018-02-17T01:06:15.883Z,18.95
2018-02-17T01:07:19.186Z,18.85
2018-02-17T01:08:21.673Z,19.33
2018-02-17T01:09:24.163Z,19.45
2018-02-17T01:10:27.414Z,18.08
2018-02-17T01:11:29.914Z,18.40
2018-02-17T01:12:33.922Z,17.92
2018-02-17T01:13:37.164Z,17.87
2018-02-17T01:14:41.043Z,18.50
2018-02-17T01:15:43.559Z,19.50
2018-02-17T01:16:46.057Z,18.95
2018-02-17T01:17:48.535Z,19.77
2018-02-17T01:18:51.019Z,18.08
2018-02-17T01:19:54.274Z,19.20
2018-02-17T01:20:57.583Z,18.42
2018-02-17T01:22:00.051Z,17.20
2018-02-17T01:23:02.594Z,18.37
2018-02-17T01:24:05.102Z,19.10
2018-02-17T01:25:07.656Z,18.75
2018-02-17T01:26:10.414Z,18.35
2018-02-17T01:27:12.925Z,18.20
2018-02-17T01:28:16.222Z,18.05
2018-02-17T01:29:19.520Z,19.48
2018-02-17T01:30:22.819Z,18.73
2018-02-17T01:31:25.334Z,19.15
2018-02-17T01:32:28.597Z,18.20
2018-02-17T01:33:31.065Z,18.85
2018-02-17T01:34:33.579Z,18.50
2018-02-17T01:35:36.390Z,19.62
2018-02-17T01:36:38.875Z,18.75
2018-02-17T01:37:42.119Z,19.52
2018-02-17T01:38:45.426Z,18.50
2018-02-17T01:39:47.918Z,19.25
2018-02-17T01:40:50.491Z,18.67
2018-02-17T01:41:52.956Z,19.55
2018-02-17T01:42:55.486Z,17.67
2018-02-17T01:43:57.971Z,18.02
2018-02-17T01:45:00.624Z,18.55
2018-02-17T01:46:03.878Z,19.65
2018-02-17T01:47:06.361Z,18.02
2018-02-17T01:48:08.830Z,17.65
2018-02-17T01:49:11.306Z,18.60
2018-02-17T01:50:25.787Z,19.67
2018-02-17T01:51:28.286Z,18.85
2018-02-17T01:52:30.917Z,20.73
2018-02-17T01:53:33.468Z,20.10
2018-02-17T01:54:35.959Z,19.23
2018-02-17T01:55:39.445Z,19.35
2018-02-17T01:56:41.946Z,19.75
2018-02-17T01:57:44.644Z,19.12
2018-02-17T01:58:47.939Z,18.87
2018-02-17T01:59:50.462Z,18.60
2018-02-17T02:00:52.966Z,19.20
2018-02-17T02:01:56.321Z,20.73
2018-02-17T02:02:58.851Z,19.05
2018-02-17T02:04:01.382Z,19.42
2018-02-17T02:05:04.711Z,18.40
2018-02-17T02:06:07.187Z,19.15
2018-02-17T02:07:09.771Z,19.45
2018-02-17T02:08:12.323Z,19.50
2018-02-17T02:09:14.792Z,18.60
2018-02-17T02:10:18.061Z,18.55
2018-02-17T02:11:20.529Z,18.95
2018-02-17T02:12:23.918Z,19.70
2018-02-17T02:13:26.386Z,18.15
2018-02-17T02:14:28.975Z,18.48
2018-02-17T02:15:31.456Z,18.35
2018-02-17T02:16:34.688Z,18.85
2018-02-17T02:17:37.316Z,18.15
2018-02-17T02:18:39.770Z,19.05
2018-02-17T02:19:43.035Z,18.80
2018-02-17T02:20:45.514Z,18.90
2018-02-17T02:21:48.046Z,19.85
2018-02-17T02:22:52.076Z,18.20
2018-02-17T02:23:54.903Z,18.25
2018-02-17T02:24:57.426Z,18.00
2018-02-17T02:25:59.911Z,18.98
2018-02-17T02:27:03.147Z,18.37
2018-02-17T02:28:06.428Z,18.45
2018-02-17T02:29:08.898Z,18.50
2018-02-17T02:30:11.763Z,19.85
2018-02-17T02:31:14.990Z,17.95
2018-02-17T02:32:18.239Z,17.58
2018-02-17T02:33:20.755Z,17.65
2018-02-17T02:34:23.569Z,18.30
2018-02-17T02:35:26.254Z,18.48
2018-02-17T02:36:28.812Z,18.05
2018-02-17T02:37:31.283Z,18.77
2018-02-17T02:38:34.586Z,18.65
2018-02-17T02:39:37.050Z,18.30
2018-02-17T02:40:40.283Z,18.95
2018-02-17T02:41:42.746Z,17.20
2018-02-17T02:42:45.223Z,18.70
2018-02-17T02:43:48.510Z,17.75
2018-02-17T02:44:51.055Z,17.95
2018-02-17T02:45:53.526Z,18.20
2018-02-17T02:46:56.779Z,18.27
2018-02-17T02:48:00.043Z,18.20
2018-02-17T02:49:02.550Z,17.98
2018-02-17T02:50:05.800Z,16.92
2018-02-17T02:51:09.035Z,18.23
2018-02-17T02:52:12.314Z,19.10
2018-02-17T02:53:14.774Z,17.10
2018-02-17T02:54:17.260Z,19.48
2018-02-17T02:55:19.783Z,17.85
2018-02-17T02:56:22.810Z,17.30
2018-02-17T02:57:25.302Z,19.20
2018-02-17T02:58:28.532Z,18.65
2018-02-17T02:59:30.999Z,18.12
2018-02-17T03:00:33.522Z,19.30
2018-02-17T03:01:35.989Z,18.45
2018-02-17T03:02:38.466Z,18.70
2018-02-17T03:03:40.960Z,18.58
2018-02-17T03:04:43.469Z,18.45
2018-02-17T03:05:46.009Z,18.50
2018-02-17T03:06:48.600Z,19.95
2018-02-17T03:07:51.105Z,18.48
2018-02-17T03:08:54.409Z,19.05
2018-02-17T03:09:56.968Z,18.50
2018-02-17T03:11:00.199Z,18.77
2018-02-17T03:12:03.469Z,19.00
2018-02-17T03:13:05.925Z,18.62
2018-02-17T03:14:08.390Z,19.17
2018-02-17T03:15:11.850Z,19.75
2018-02-17T03:16:14.319Z,18.40
2018-02-17T03:17:16.808Z,19.90
2018-02-17T03:18:19.374Z,19.12
2018-02-17T03:19:22.687Z,19.48
2018-02-17T03:20:25.196Z,18.80
2018-02-17T03:21:28.418Z,17.73
2018-02-17T03:22:31.673Z,17.65
2018-02-17T03:23:34.910Z,19.12
2018-02-17T03:24:38.205Z,18.85
2018-02-17T03:25:40.727Z,18.15
2018-02-17T03:26:43.274Z,18.67
2018-02-17T03:27:45.796Z,17.92
2018-02-17T03:28:48.299Z,18.77
2018-02-17T03:29:50.812Z,18.75
2018-02-17T03:30:53.396Z,19.50
2018-02-17T03:31:56.012Z,19.35
2018-02-17T03:32:58.508Z,18.35
2018-02-17T03:34:01.028Z,18.37
2018-02-17T03:35:03.515Z,20.45
2018-02-17T03:36:06.746Z,19.12
2018-02-17T03:37:09.297Z,19.23
2018-02-17T03:38:12.528Z,19.02
2018-02-17T03:39:15.768Z,19.10
2018-02-17T03:40:19.013Z,19.45
2018-02-17T03:41:22.278Z,18.10
2018-02-17T03:42:24.799Z,17.42
2018-02-17T03:43:27.258Z,19.37
2018-02-17T03:44:29.727Z,18.85
2018-02-17T03:45:33.010Z,19.20
2018-02-17T03:46:35.473Z,18.42
2018-02-17T03:47:39.476Z,19.60
2018-02-17T03:48:41.967Z,19.55
2018-02-17T03:49:44.422Z,18.77
2018-02-17T03:50:46.917Z,18.62
2018-02-17T03:51:49.460Z,19.45
2018-02-17T03:52:52.714Z,19.20
2018-02-17T03:53:55.281Z,18.55
2018-02-17T03:54:57.775Z,18.70
2018-02-17T03:56:00.250Z,19.50
2018-02-17T03:57:02.708Z,18.87
2018-02-17T03:58:05.971Z,19.08
2018-02-17T03:59:08.449Z,18.23
2018-02-17T04:00:11.067Z,18.90
2018-02-17T04:01:13.630Z,17.85
2018-02-17T04:02:16.140Z,18.87
2018-02-17T04:03:19.553Z,18.45
2018-02-17T04:04:22.026Z,18.45
2018-02-17T04:05:25.250Z,18.20
2018-02-17T04:06:28.494Z,18.65
2018-02-17T04:07:31.718Z,18.50
2018-02-17T04:08:34.224Z,18.62
2018-02-17T04:09:36.819Z,20.30
2018-02-17T04:10:39.292Z,19.60
2018-02-17T04:11:42.581Z,18.12
2018-02-17T04:12:45.074Z,20.00
2018-02-17T04:13:47.575Z,18.55
2018-02-17T04:14:50.075Z,19.73
2018-02-17T04:15:52.540Z,19.60
2018-02-17T04:16:55.010Z,19.15
2018-02-17T04:17:57.546Z,19.85
2018-02-17T04:19:00.046Z,19.10
2018-02-17T04:20:03.314Z,17.87
2018-02-17T04:21:05.855Z,19.00
2018-02-17T04:22:08.348Z,19.10
2018-02-17T04:23:10.843Z,19.80
2018-02-17T04:24:14.144Z,20.02
2018-02-17T04:25:16.658Z,19.67
2018-02-17T04:26:19.134Z,18.92
2018-02-17T04:27:21.601Z,20.05
2018-02-17T04:28:24.100Z,19.40
2018-02-17T04:29:27.373Z,19.77
2018-02-17T04:30:29.854Z,19.65
2018-02-17T04:31:32.350Z,20.27
2018-02-17T04:32:34.939Z,20.77
2018-02-17T04:33:37.426Z,19.35
2018-02-17T04:34:39.914Z,20.25
2018-02-17T04:35:42.424Z,19.35
2018-02-17T04:36:44.884Z,19.90
2018-02-17T04:37:47.356Z,19.77
2018-02-17T04:38:50.603Z,19.65
2018-02-17T04:39:54.682Z,19.08
2018-02-17T04:42:48.742Z,20.50
2018-02-17T04:45:44.533Z,20.35
2018-02-17T04:46:52.234Z,18.80
2018-02-17T04:48:02.398Z,20.80
2018-02-17T04:49:08.284Z,19.30
2018-02-17T04:50:31.609Z,19.62
2018-02-17T04:51:35.864Z,19.10
2018-02-17T04:52:39.864Z,19.98
2018-02-17T04:53:53.184Z,19.73
2018-02-17T04:55:14.366Z,19.25
2018-02-17T04:56:23.530Z,19.70
2018-02-17T04:57:43.812Z,19.50
2018-02-17T04:59:01.166Z,19.12
2018-02-17T05:00:04.515Z,19.67
2018-02-17T05:01:12.801Z,19.23
2018-02-17T05:02:18.523Z,20.55
2018-02-17T05:03:33.882Z,20.92
2018-02-17T05:04:39.291Z,20.05
2018-02-17T05:05:48.342Z,20.02
2018-02-17T05:07:08.679Z,21.37
2018-02-17T05:09:36.578Z,20.83
2018-02-17T05:10:39.848Z,20.55
2018-02-17T05:11:42.802Z,21.33
2018-02-17T05:12:45.299Z,21.02
2018-02-17T05:13:47.767Z,20.65
2018-02-17T05:14:50.240Z,20.65
2018-02-17T05:15:59.170Z,20.85
2018-02-17T05:17:17.516Z,20.23
2018-02-17T05:18:19.996Z,20.92
2018-02-17T05:19:28.075Z,20.92
2018-02-17T05:20:36.934Z,20.77
2018-02-17T05:21:46.057Z,21.25
2018-02-17T05:23:05.287Z,20.45
2018-02-17T05:24:22.664Z,20.70
2018-02-17T05:25:26.738Z,20.05
2018-02-17T05:26:45.921Z,19.95
2018-02-17T05:28:03.384Z,19.95
2018-02-17T05:29:06.730Z,19.77
2018-02-17T05:30:12.638Z,21.25
2018-02-17T05:31:16.615Z,20.70
2018-02-17T05:32:35.892Z,20.70
2018-02-17T05:33:43.978Z,19.90
2018-02-17T05:35:03.009Z,20.15
2018-02-17T05:36:07.886Z,19.87
2018-02-17T05:37:10.362Z,20.95
2018-02-17T05:38:14.416Z,20.75
2018-02-17T05:39:16.869Z,19.70
2018-02-17T05:40:25.808Z,20.83
2018-02-17T05:41:28.288Z,21.12
2018-02-17T05:42:33.257Z,20.08
2018-02-17T05:43:36.535Z,21.17
2018-02-17T05:44:47.581Z,21.15
2018-02-17T05:45:50.062Z,21.05
2018-02-17T05:46:53.300Z,21.95
2018-02-17T05:48:00.377Z,21.08
2018-02-17T05:49:04.439Z,20.92
2018-02-17T05:50:12.708Z,19.67
2018-02-17T05:51:15.187Z,19.62
2018-02-17T05:52:18.004Z,20.50
2018-02-17T05:53:20.519Z,20.95
2018-02-17T05:54:23.871Z,20.55
2018-02-17T05:55:26.399Z,19.45
2018-02-17T05:56:29.222Z,20.25
2018-02-17T05:57:32.495Z,21.75
2018-02-17T05:58:34.963Z,20.80
2018-02-17T05:59:37.934Z,20.20
2018-02-17T06:00:40.455Z,21.25
2018-02-17T06:01:43.290Z,21.00
2018-02-17T06:02:45.795Z,19.95
2018-02-17T06:03:49.192Z,21.12
2018-02-17T06:04:51.752Z,22.13
2018-02-17T06:05:54.251Z,21.52
2018-02-17T06:06:57.435Z,20.75
2018-02-17T06:08:00.714Z,20.52
2018-02-17T06:09:03.194Z,18.85
2018-02-17T06:10:06.475Z,20.40
2018-02-17T06:11:08.946Z,20.90
2018-02-17T06:12:11.410Z,20.10
2018-02-17T06:13:14.679Z,20.50
2018-02-17T06:14:17.141Z,20.65
2018-02-17T06:15:19.651Z,20.08
2018-02-17T06:16:22.120Z,22.65
2018-02-17T06:17:25.386Z,19.80
2018-02-17T06:18:27.871Z,21.50
2018-02-17T06:19:30.338Z,20.50
2018-02-17T06:20:32.874Z,21.20
2018-02-17T06:21:35.524Z,21.23
2018-02-17T06:22:38.004Z,21.23
2018-02-17T06:23:40.530Z,21.00
2018-02-17T06:24:43.040Z,21.23
2018-02-17T06:25:46.323Z,19.67
2018-02-17T06:26:49.203Z,20.55
2018-02-17T06:27:51.777Z,19.42
2018-02-17T06:28:54.290Z,20.55
2018-02-17T06:29:56.787Z,20.73
2018-02-17T06:31:00.084Z,20.88
2018-02-17T06:32:02.545Z,20.42
2018-02-17T06:33:05.071Z,19.75
2018-02-17T06:34:08.326Z,21.42
2018-02-17T06:35:11.550Z,20.92
2018-02-17T06:36:14.109Z,21.05
2018-02-17T06:37:16.591Z,20.42
2018-02-17T06:38:19.111Z,21.60
2018-02-17T06:39:21.583Z,21.17
2018-02-17T06:40:24.807Z,21.83
2018-02-17T06:41:27.343Z,20.60
2018-02-17T06:42:30.569Z,20.77
2018-02-17T06:43:33.046Z,21.70
2018-02-17T06:44:35.571Z,20.85
2018-02-17T06:45:38.090Z,19.40
2018-02-17T06:46:40.570Z,20.83
2018-02-17T06:47:43.295Z,20.05
2018-02-17T06:48:46.584Z,21.70
2018-02-17T06:49:49.093Z,20.10
2018-02-17T06:50:52.342Z,20.20
2018-02-17T06:51:54.882Z,19.55
2018-02-17T06:52:57.394Z,21.67
2018-02-17T06:53:59.903Z,20.02
2018-02-17T06:55:02.406Z,20.75
2018-02-17T06:56:04.920Z,20.73
2018-02-17T06:57:07.452Z,22.25
2018-02-17T06:58:09.921Z,20.05
2018-02-17T06:59:12.409Z,20.83
2018-02-17T07:00:14.867Z,20.05
2018-02-17T07:01:17.395Z,21.27
2018-02-17T07:02:19.859Z,20.23
2018-02-17T07:03:22.342Z,20.60
2018-02-17T07:04:24.865Z,21.17
2018-02-17T07:05:28.089Z,20.95
2018-02-17T07:06:31.350Z,21.37
2018-02-17T07:07:33.919Z,20.27
2018-02-17T07:08:36.382Z,20.50
2018-02-17T07:09:39.648Z,20.55
2018-02-17T07:10:42.107Z,20.83
2018-02-17T07:11:44.596Z,21.30
2018-02-17T07:12:47.085Z,20.15
2018-02-17T07:13:49.559Z,20.52
2018-02-17T07:14:52.342Z,21.90
2018-02-17T07:15:56.322Z,22.00
2018-02-17T07:16:59.687Z,20.75
2018-02-17T07:18:02.172Z,21.52
2018-02-17T07:19:04.751Z,21.87
2018-02-17T07:20:07.282Z,20.58
2018-02-17T07:21:09.769Z,21.33
2018-02-17T07:22:13.051Z,21.73
2018-02-17T07:23:15.520Z,21.15
2018-02-17T07:24:18.004Z,20.15
2018-02-17T07:25:20.474Z,21.08
2018-02-17T07:26:23.735Z,21.02
2018-02-17T07:27:27.012Z,21.55
2018-02-17T07:28:29.505Z,21.02
2018-02-17T07:29:32.734Z,21.85
2018-02-17T07:30:35.977Z,20.67
2018-02-17T07:31:39.237Z,20.98
2018-02-17T07:32:42.917Z,21.95
2018-02-17T07:33:45.398Z,21.15
2018-02-17T07:34:48.635Z,22.48
2018-02-17T07:35:51.850Z,21.33
2018-02-17T07:36:54.438Z,21.87
2018-02-17T07:37:56.921Z,22.20
2018-02-17T07:38:59.507Z,21.15
2018-02-17T07:40:02.018Z,21.90
2018-02-17T07:41:05.283Z,20.27
2018-02-17T07:42:07.780Z,22.08
2018-02-17T07:43:10.234Z,21.45
2018-02-17T07:44:12.772Z,21.77
2018-02-17T07:45:15.318Z,22.23
2018-02-17T07:46:17.805Z,21.17
2018-02-17T07:47:20.304Z,20.80
2018-02-17T07:48:22.878Z,19.58
2018-02-17T07:49:25.345Z,20.88
2018-02-17T07:50:28.639Z,21.60
2018-02-17T07:51:31.151Z,20.77
2018-02-17T07:52:34.343Z,21.37
2018-02-17T07:53:36.804Z,20.42
2018-02-17T07:54:39.280Z,20.65
2018-02-17T07:55:41.797Z,21.17
2018-02-17T07:56:44.418Z,20.92
2018-02-17T07:57:46.910Z,20.88
2018-02-17T07:58:49.429Z,21.17
2018-02-17T07:59:51.954Z,21.40
2018-02-17T08:00:54.487Z,20.23
2018-02-17T08:01:56.972Z,20.40
2018-02-17T08:03:00.233Z,20.12
2018-02-17T08:04:03.495Z,20.92
2018-02-17T08:05:05.987Z,21.70
2018-02-17T08:06:09.273Z,21.08
2018-02-17T08:07:11.764Z,21.50
2018-02-17T08:08:15.023Z,22.35
2018-02-17T08:09:17.489Z,20.48
2018-02-17T08:10:19.970Z,21.05
2018-02-17T08:11:22.502Z,21.05
2018-02-17T08:12:25.048Z,20.02
2018-02-17T08:13:27.590Z,22.58
2018-02-17T08:14:30.101Z,21.48
2018-02-17T08:15:32.605Z,20.10
2018-02-17T08:16:35.140Z,23.67
2018-02-17T08:17:37.626Z,21.08
2018-02-17T08:18:40.225Z,21.15
2018-02-17T08:19:42.755Z,22.13
2018-02-17T08:20:45.239Z,21.10
2018-02-17T08:21:47.758Z,22.45
2018-02-17T08:22:50.264Z,21.58
2018-02-17T08:23:52.781Z,21.87
2018-02-17T08:24:55.602Z,20.35
2018-02-17T08:25:58.086Z,20.60
2018-02-17T08:27:00.582Z,20.48
2018-02-17T08:28:03.834Z,22.55
2018-02-17T08:29:06.315Z,21.23
2018-02-17T08:30:08.934Z,20.95
2018-02-17T08:31:11.395Z,21.58
2018-02-17T08:32:14.724Z,22.77
2018-02-17T08:33:17.987Z,22.87
2018-02-17T08:34:20.504Z,20.73
2018-02-17T08:35:23.079Z,20.67
2018-02-17T08:36:25.616Z,22.13
2018-02-17T08:37:28.118Z,21.65
2018-02-17T08:38:30.672Z,20.83
2018-02-17T08:39:33.200Z,22.15
2018-02-17T08:40:35.738Z,22.27
2018-02-17T08:41:38.219Z,21.17
2018-02-17T08:42:41.142Z,20.73
2018-02-17T08:43:43.654Z,20.95
2018-02-17T08:44:46.142Z,20.90
2018-02-17T08:45:48.686Z,20.58
2018-02-17T08:46:51.970Z,21.55
2018-02-17T08:47:54.490Z,22.05
2018-02-17T08:48:56.963Z,22.17
2018-02-17T08:49:59.430Z,22.60
2018-02-17T08:51:02.005Z,21.15
2018-02-17T08:52:04.471Z,21.90
2018-02-17T08:53:07.778Z,21.60
2018-02-17T08:54:10.247Z,20.95
2018-02-17T08:55:13.483Z,22.08
2018-02-17T08:56:16.728Z,21.10
2018-02-17T08:57:19.987Z,19.48
2018-02-17T08:58:22.512Z,20.75
2018-02-17T08:59:24.987Z,22.02
2018-02-17T09:00:27.466Z,20.95
2018-02-17T09:01:29.928Z,21.08
2018-02-17T09:02:32.392Z,20.75
2018-02-17T09:03:36.462Z,21.58
2018-02-17T09:04:38.965Z,20.00
2018-02-17T09:05:41.728Z,21.25
2018-02-17T09:06:44.193Z,22.65
2018-02-17T09:07:46.654Z,20.95
2018-02-17T09:08:49.904Z,22.70
2018-02-17T09:09:53.155Z,22.00
2018-02-17T09:10:55.682Z,22.17
2018-02-17T09:11:58.112Z,22.45
2018-02-17T09:13:00.661Z,21.05
2018-02-17T09:14:03.136Z,20.23
2018-02-17T09:15:06.391Z,20.67
2018-02-17T09:16:08.875Z,20.98
2018-02-17T09:17:11.337Z,21.87
2018-02-17T09:18:14.673Z,21.25
2018-02-17T09:19:17.930Z,21.25
2018-02-17T09:20:21.167Z,21.67
2018-02-17T09:21:24.719Z,22.42
2018-02-17T09:22:27.187Z,22.60
2018-02-17T09:23:29.684Z,22.13
2018-02-17T09:24:32.147Z,21.90
2018-02-17T09:25:34.610Z,22.08
2018-02-17T09:26:37.898Z,26.20
2018-02-17T09:27:40.367Z,22.00
2018-02-17T09:28:42.860Z,21.60
2018-02-17T09:29:45.343Z,49.53
2018-02-17T09:30:47.804Z,25.23
2018-02-17T09:31:50.315Z,28.00
2018-02-17T09:32:52.923Z,21.55
2018-02-17T09:33:55.409Z,23.33
2018-02-17T09:34:59.860Z,22.85
2018-02-17T09:36:02.361Z,22.05
2018-02-17T09:37:04.905Z,21.42
2018-02-17T09:38:07.405Z,21.45
2018-02-17T09:39:09.908Z,21.33
2018-02-17T09:40:13.355Z,22.40
2018-02-17T09:41:16.593Z,21.40
2018-02-17T09:42:19.902Z,22.17
2018-02-17T09:43:22.378Z,22.70
2018-02-17T09:44:24.915Z,21.80
2018-02-17T09:45:28.165Z,21.65
2018-02-17T09:46:30.689Z,22.40
2018-02-17T09:47:33.171Z,21.30
2018-02-17T09:48:36.447Z,20.40
2018-02-17T09:49:38.985Z,23.08
2018-02-17T09:50:41.470Z,20.52
2018-02-17T09:51:44.734Z,22.65
2018-02-17T09:52:47.253Z,21.70
2018-02-17T09:53:51.058Z,22.08
2018-02-17T09:54:53.655Z,22.98
2018-02-17T09:55:56.243Z,21.25
2018-02-17T09:56:59.523Z,23.02
2018-02-17T09:58:02.063Z,21.02
2018-02-17T09:59:04.535Z,21.92
2018-02-17T10:00:07.777Z,21.30
2018-02-17T10:01:10.754Z,22.87
2018-02-17T10:02:13.244Z,21.45
2018-02-17T10:03:16.485Z,21.65
2018-02-17T10:04:19.756Z,23.38
2018-02-17T10:05:22.314Z,22.52
2018-02-17T10:06:24.835Z,21.58
2018-02-17T10:07:27.314Z,22.23
2018-02-17T10:08:30.606Z,22.10
2018-02-17T10:09:33.102Z,21.17
2018-02-17T10:10:35.675Z,22.55
2018-02-17T10:11:38.175Z,21.65
2018-02-17T10:12:40.691Z,21.30
2018-02-17T10:13:43.177Z,21.52
2018-02-17T10:14:46.559Z,22.40
2018-02-17T10:15:49.084Z,24.10
2018-02-17T10:16:51.562Z,22.30
2018-02-17T10:17:54.036Z,22.40
2018-02-17T10:18:56.532Z,21.65
2018-02-17T10:19:59.075Z,22.58
2018-02-17T10:21:01.597Z,21.70
2018-02-17T10:22:04.117Z,20.88
2018-02-17T10:23:07.390Z,22.58
2018-02-17T10:24:09.903Z,22.58
2018-02-17T10:25:12.400Z,22.05
2018-02-17T10:26:15.666Z,20.58
2018-02-17T10:27:18.166Z,22.65
2018-02-17T10:28:21.868Z,21.10
2018-02-17T10:29:24.398Z,22.37
2018-02-17T10:30:26.925Z,21.98
2018-02-17T10:31:29.424Z,22.95
2018-02-17T10:32:32.214Z,24.23
2018-02-17T10:33:35.454Z,24.98
2018-02-17T10:34:38.033Z,24.58
2018-02-17T10:35:40.547Z,22.80
2018-02-17T10:36:43.069Z,23.12
2018-02-17T10:37:46.355Z,23.77
2018-02-17T10:38:48.828Z,24.60
2018-02-17T10:39:52.086Z,24.12
2018-02-17T10:40:54.671Z,25.12
2018-02-17T10:41:57.164Z,24.20
2018-02-17T10:42:59.681Z,23.87
2018-02-17T10:44:02.176Z,24.37
2018-02-17T10:45:05.439Z,24.00
2018-02-17T10:46:07.960Z,24.80
2018-02-17T10:47:10.567Z,25.88
2018-02-17T10:48:13.929Z,25.48
2018-02-17T10:49:16.463Z,24.33
2018-02-17T10:50:19.716Z,24.87
2018-02-17T10:51:22.212Z,24.50
2018-02-17T10:52:25.624Z,25.37
2018-02-17T10:53:28.122Z,24.02
2018-02-17T10:54:30.715Z,24.42
2018-02-17T10:55:37.954Z,22.08
2018-02-17T10:56:40.475Z,25.10
2018-02-17T10:57:42.957Z,23.92
2018-02-17T10:58:45.540Z,23.55
2018-02-17T10:59:48.129Z,24.35
2018-02-17T11:00:50.745Z,23.77
2018-02-17T11:01:53.267Z,24.35
2018-02-17T11:02:56.033Z,25.75
2018-02-17T11:03:58.622Z,25.33
2018-02-17T11:05:01.156Z,24.40
2018-02-17T11:06:03.848Z,24.63
2018-02-17T11:07:06.331Z,24.40
2018-02-17T11:08:09.612Z,24.00
2018-02-17T11:09:12.118Z,23.33
2018-02-17T11:10:14.663Z,22.98
2018-02-17T11:11:17.182Z,23.08
2018-02-17T11:12:19.679Z,23.20
2018-02-17T11:13:23.590Z,25.12
2018-02-17T11:14:26.082Z,23.92
2018-02-17T11:15:28.557Z,25.85
2018-02-17T11:16:32.025Z,25.48
2018-02-17T11:17:34.587Z,25.55
2018-02-17T11:18:37.553Z,26.70
2018-02-17T11:19:40.087Z,26.42
2018-02-17T11:20:42.653Z,24.70
2018-02-17T11:21:45.883Z,25.55
2018-02-17T11:22:49.118Z,24.27
2018-02-17T11:23:51.587Z,25.65
2018-02-17T11:24:54.203Z,24.00
2018-02-17T11:25:56.679Z,65.60
2018-02-17T11:26:59.196Z,27.55
2018-02-17T11:28:01.696Z,41.17
2018-02-17T11:29:04.189Z,31.02
2018-02-17T11:30:06.672Z,43.83
2018-02-17T11:31:09.158Z,45.72
2018-02-17T11:32:12.442Z,29.25
2018-02-17T11:33:14.918Z,25.30
2018-02-17T11:34:18.225Z,25.12
2018-02-17T11:35:20.739Z,24.10
2018-02-17T11:36:23.237Z,24.25
2018-02-17T11:37:25.706Z,24.80
2018-02-17T11:38:28.202Z,23.55
2018-02-17T11:39:30.684Z,22.83
2018-02-17T11:40:33.910Z,23.62
2018-02-17T11:41:37.922Z,23.20
2018-02-17T11:42:40.405Z,24.42
2018-02-17T11:43:43.640Z,23.52
2018-02-17T11:44:46.907Z,23.60
2018-02-17T11:45:49.425Z,23.27
2018-02-17T11:46:52.650Z,23.70
2018-02-17T11:47:55.907Z,23.48
2018-02-17T11:48:59.170Z,23.95
2018-02-17T11:50:01.631Z,25.08
2018-02-17T11:51:04.123Z,24.20
2018-02-17T11:52:06.613Z,24.45
2018-02-17T11:53:09.084Z,24.60
2018-02-17T11:54:11.673Z,23.00
2018-02-17T11:55:14.914Z,22.80
2018-02-17T11:56:18.164Z,22.83
2018-02-17T11:57:21.388Z,22.48
2018-02-17T11:58:24.662Z,23.23
2018-02-17T11:59:27.943Z,23.05
2018-02-17T12:00:30.547Z,23.02
2018-02-17T12:01:33.023Z,22.73
2018-02-17T12:02:35.530Z,22.75
2018-02-17T12:03:38.002Z,21.77
2018-02-17T12:04:41.028Z,23.73
2018-02-17T12:05:44.391Z,22.17
2018-02-17T12:06:46.934Z,22.48
2018-02-17T12:07:49.417Z,23.65
2018-02-17T12:08:52.641Z,23.50
2018-02-17T12:09:55.196Z,22.13
2018-02-17T12:10:58.480Z,23.27
2018-02-17T12:12:00.998Z,22.92
2018-02-17T12:13:03.494Z,22.40
2018-02-17T12:14:06.067Z,21.98
2018-02-17T12:15:08.519Z,22.60
2018-02-17T12:16:11.002Z,19.75
2018-02-17T12:17:13.880Z,21.75
2018-02-17T12:18:17.139Z,20.70
2018-02-17T12:19:20.366Z,21.73
2018-02-17T12:20:22.833Z,21.25
2018-02-17T12:21:25.312Z,21.50
2018-02-17T12:22:27.796Z,21.17
2018-02-17T12:23:30.266Z,21.27
2018-02-17T12:24:33.532Z,21.73
2018-02-17T12:25:36.015Z,21.30
2018-02-17T12:26:39.456Z,20.45
2018-02-17T12:27:41.918Z,20.52
2018-02-17T12:28:45.150Z,19.75
2018-02-17T12:29:48.415Z,21.33
2018-02-17T12:30:50.911Z,19.95
2018-02-17T12:31:53.374Z,20.98
2018-02-17T12:32:55.888Z,21.10
2018-02-17T12:33:58.394Z,21.83
2018-02-17T12:35:01.655Z,22.55
2018-02-17T12:36:04.887Z,22.67
2018-02-17T12:37:08.138Z,23.15
2018-02-17T12:38:10.638Z,20.65
2018-02-17T12:39:13.877Z,22.00
2018-02-17T12:40:16.342Z,21.52
2018-02-17T12:41:18.919Z,19.98
2018-02-17T12:42:22.174Z,21.65
2018-02-17T12:43:24.744Z,20.23
2018-02-17T12:44:27.264Z,21.75
2018-02-17T12:45:29.735Z,21.15
2018-02-17T12:46:32.239Z,20.52
2018-02-17T12:47:34.712Z,21.30
2018-02-17T12:48:37.982Z,20.90
2018-02-17T12:49:40.466Z,21.60
2018-02-17T12:50:42.967Z,22.15
2018-02-17T12:51:45.470Z,21.30
2018-02-17T12:52:47.960Z,21.10
2018-02-17T12:53:51.333Z,22.15
2018-02-17T12:54:53.814Z,20.00
2018-02-17T12:55:56.306Z,21.00
2018-02-17T12:56:59.508Z,19.40
2018-02-17T12:58:02.779Z,20.05
2018-02-17T12:59:05.239Z,30.20
2018-02-17T13:00:07.731Z,28.73
2018-02-17T13:01:10.236Z,20.88
2018-02-17T13:02:13.547Z,19.90
2018-02-17T13:03:17.089Z,21.77
2018-02-17T13:04:19.585Z,19.23
2018-02-17T13:05:22.078Z,19.98
2018-02-17T13:06:24.952Z,20.58
2018-02-17T13:07:27.470Z,19.35
2018-02-17T13:08:29.997Z,19.55
2018-02-17T13:09:32.505Z,18.45
2018-02-17T13:10:35.588Z,18.77
2018-02-17T13:11:38.087Z,19.45
2018-02-17T13:12:40.602Z,18.65
2018-02-17T13:13:43.237Z,19.67
2018-02-17T13:14:45.728Z,19.10
2018-02-17T13:15:48.244Z,19.02
2018-02-17T13:16:51.479Z,19.95
2018-02-17T13:17:54.714Z,19.25
2018-02-17T13:18:58.006Z,17.90
2018-02-17T13:20:00.636Z,17.17
2018-02-17T13:21:03.151Z,18.98
2018-02-17T13:22:05.625Z,18.08
2018-02-17T13:23:08.196Z,17.75
2018-02-17T13:24:10.686Z,17.55
2018-02-17T13:25:14.033Z,18.35
2018-02-17T13:26:17.688Z,17.00
2018-02-17T13:27:20.952Z,18.23
2018-02-17T13:28:25.185Z,17.92
2018-02-17T13:29:28.486Z,17.98
2018-02-17T13:30:31.028Z,17.58
2018-02-17T13:31:33.509Z,17.85
2018-02-17T13:32:36.768Z,17.85
2018-02-17T13:33:39.332Z,16.62
2018-02-17T13:34:41.824Z,16.92
2018-02-17T13:35:44.365Z,16.70
2018-02-17T13:36:46.941Z,16.98
2018-02-17T13:37:49.388Z,16.70
2018-02-17T13:38:51.969Z,17.27